createdAt,value
2018-10-18T00:00:12.066Z,98387.92
2018-10-18T00:02:41.176Z,98376.93
2018-10-18T00:05:10.399Z,98371.86
2018-10-18T00:07:39.616Z,98358.78
2018-10-18T00:10:09.160Z,98363.41
2018-10-18T00:12:38.567Z,98364.27
2018-10-18T00:15:08.580Z,98363.41
2018-10-18T00:17:42.962Z,98361.73
2018-10-18T00:20:12.283Z,98357.91
2018-10-18T00:22:41.479Z,98365.52
2018-10-18T00:25:10.702Z,98351.13
2018-10-18T00:27:40.199Z,98359.63
2018-10-18T00:30:11.871Z,98367.20
2018-10-18T00:32:41.469Z,98354.52
2018-10-18T00:35:10.910Z,98346.02
2018-10-18T00:37:40.475Z,98340.14
2018-10-18T00:40:11.241Z,98329.55
2018-10-18T00:42:40.500Z,98325.75
2018-10-18T00:45:10.515Z,98316.89
2018-10-18T00:47:39.738Z,98312.28
2018-10-18T00:50:10.706Z,98316.07
2018-10-18T00:52:39.892Z,98317.78
2018-10-18T00:55:10.270Z,98328.75
2018-10-18T00:57:40.203Z,98331.72
2018-10-18T01:00:10.498Z,98335.55
2018-10-18T01:02:39.696Z,98337.22
2018-10-18T01:05:08.903Z,98332.58
2018-10-18T01:07:38.120Z,98334.27
2018-10-18T01:10:07.365Z,98336.78
2018-10-18T01:12:36.734Z,98333.80
2018-10-18T01:15:06.663Z,98342.27
2018-10-18T01:17:35.866Z,98338.49
2018-10-18T01:20:05.977Z,98340.99
2018-10-18T01:22:35.099Z,98337.61
2018-10-18T01:25:04.446Z,98346.87
2018-10-18T01:27:33.655Z,98346.91
2018-10-18T01:30:02.926Z,98355.78
2018-10-18T01:32:32.135Z,98353.66
2018-10-18T01:35:01.390Z,98353.66
2018-10-18T01:37:30.607Z,98359.58
2018-10-18T01:39:59.848Z,98384.36
2018-10-18T01:42:29.059Z,98387.76
2018-10-18T01:44:58.288Z,98390.30
2018-10-18T01:47:27.503Z,98386.15
2018-10-18T01:49:56.764Z,98381.86
2018-10-18T01:52:25.936Z,98374.63
2018-10-18T01:54:55.152Z,98382.22
2018-10-18T01:57:24.359Z,98378.03
2018-10-18T01:59:53.587Z,98378.08
2018-10-18T02:02:22.795Z,98378.03
2018-10-18T02:04:52.019Z,98374.66
2018-10-18T02:07:21.223Z,98386.45
2018-10-18T02:09:50.419Z,98383.52
2018-10-18T02:12:19.605Z,98384.73
2018-10-18T02:14:48.796Z,98386.01
2018-10-18T02:17:17.966Z,98386.01
2018-10-18T02:19:47.155Z,98385.11
2018-10-18T02:22:16.340Z,98384.28
2018-10-18T02:24:45.521Z,98382.17
2018-10-18T02:27:14.698Z,98378.34
2018-10-18T02:29:43.891Z,98380.53
2018-10-18T02:32:13.075Z,98380.11
2018-10-18T02:34:42.245Z,98379.67
2018-10-18T02:37:11.430Z,98376.26
2018-10-18T02:39:40.622Z,98378.76
2018-10-18T02:42:09.860Z,98374.55
2018-10-18T02:44:38.988Z,98375.34
2018-10-18T02:47:08.179Z,98376.66
2018-10-18T02:49:37.351Z,98377.47
2018-10-18T02:52:06.571Z,98377.47
2018-10-18T02:54:35.736Z,98381.62
2018-10-18T02:57:05.264Z,98380.37
2018-10-18T02:59:34.442Z,98377.42
2018-10-18T03:02:03.632Z,98376.58
2018-10-18T03:04:32.802Z,98383.34
2018-10-18T03:07:01.983Z,98383.42
2018-10-18T03:09:31.183Z,98386.34
2018-10-18T03:12:00.428Z,98386.78
2018-10-18T03:14:29.594Z,98384.16
2018-10-18T03:16:58.820Z,98392.56
2018-10-18T03:19:28.047Z,98395.95
2018-10-18T03:21:57.250Z,98385.09
2018-10-18T03:24:26.464Z,98386.88
2018-10-18T03:26:55.688Z,98388.52
2018-10-18T03:29:25.000Z,98390.27
2018-10-18T03:31:54.256Z,98390.69
2018-10-18T03:34:23.463Z,98391.96
2018-10-18T03:36:52.671Z,98389.80
2018-10-18T03:39:21.881Z,98390.10
2018-10-18T03:41:51.088Z,98390.91
2018-10-18T03:44:20.291Z,98400.13
2018-10-18T03:46:49.500Z,98403.98
2018-10-18T03:49:18.734Z,98396.81
2018-10-18T03:51:47.936Z,98396.78
2018-10-18T03:54:17.208Z,98397.57
2018-10-18T03:56:46.451Z,98390.78
2018-10-18T03:59:15.658Z,98395.81
2018-10-18T04:01:44.863Z,98392.41
2018-10-18T04:04:14.081Z,98389.44
2018-10-18T04:06:43.287Z,98392.48
2018-10-18T04:09:12.499Z,98381.05
2018-10-18T04:11:42.009Z,98376.89
2018-10-18T04:14:11.187Z,98382.78
2018-10-18T04:16:40.354Z,98384.52
2018-10-18T04:19:09.542Z,98379.00
2018-10-18T04:21:38.719Z,98384.06
2018-10-18T04:24:07.974Z,98386.95
2018-10-18T04:26:37.085Z,98391.20
2018-10-18T04:29:06.303Z,98395.87
2018-10-18T04:31:35.488Z,98393.77
2018-10-18T04:34:04.683Z,98394.58
2018-10-18T04:36:33.869Z,98382.78
2018-10-18T04:39:03.108Z,98384.05
2018-10-18T04:41:32.275Z,98386.55
2018-10-18T04:44:01.466Z,98380.23
2018-10-18T04:46:30.645Z,98381.09
2018-10-18T04:48:59.882Z,98390.80
2018-10-18T04:51:28.999Z,98389.08
2018-10-18T04:53:58.203Z,98395.39
2018-10-18T04:56:27.450Z,98395.02
2018-10-18T04:58:56.766Z,98400.89
2018-10-18T05:01:26.036Z,98398.41
2018-10-18T05:03:55.152Z,98397.88
2018-10-18T05:06:24.323Z,98400.80
2018-10-18T05:08:53.523Z,98408.33
2018-10-18T05:11:22.746Z,98406.64
2018-10-18T05:13:51.895Z,98410.92
2018-10-18T05:16:21.078Z,98408.83
2018-10-18T05:18:50.251Z,98417.66
2018-10-18T05:21:19.455Z,98415.99
2018-10-18T05:23:48.749Z,98414.73
2018-10-18T05:26:17.883Z,98418.54
2018-10-18T05:28:47.059Z,98415.20
2018-10-18T05:31:16.431Z,98423.05
2018-10-18T05:33:45.422Z,98426.84
2018-10-18T05:36:14.603Z,98432.77
2018-10-18T05:38:43.770Z,98434.03
2018-10-18T05:41:12.956Z,98439.11
2018-10-18T05:43:42.131Z,98444.19
2018-10-18T05:46:11.310Z,98446.34
2018-10-18T05:48:40.486Z,98446.72
2018-10-18T05:51:09.667Z,98447.98
2018-10-18T05:53:38.967Z,98453.86
2018-10-18T05:56:08.036Z,98463.52
2018-10-18T05:58:37.242Z,98468.59
2018-10-18T06:01:07.229Z,98468.70
2018-10-18T06:03:36.383Z,98466.74
2018-10-18T06:06:05.742Z,98471.44
2018-10-18T06:08:34.927Z,98470.17
2018-10-18T06:11:22.248Z,98475.98
2018-10-18T06:13:51.727Z,98476.50
2018-10-18T06:16:21.041Z,98475.32
2018-10-18T06:18:50.220Z,98480.08
2018-10-18T06:21:19.399Z,98476.27
2018-10-18T06:23:48.579Z,98482.50
2018-10-18T06:26:18.336Z,98488.67
2018-10-18T06:28:47.744Z,98497.91
2018-10-18T06:31:16.995Z,98507.66
2018-10-18T06:33:46.183Z,98504.31
2018-10-18T06:36:15.361Z,98509.00
2018-10-18T06:38:44.555Z,98520.42
2018-10-18T06:41:13.801Z,98519.53
2018-10-18T06:43:43.123Z,98522.80
2018-10-18T06:46:13.598Z,98528.38
2018-10-18T06:48:43.064Z,98528.71
2018-10-18T06:51:12.347Z,98532.17
2018-10-18T06:53:42.176Z,98535.61
2018-10-18T06:56:11.343Z,98539.43
2018-10-18T06:58:40.527Z,98539.17
2018-10-18T07:01:09.700Z,98539.34
2018-10-18T07:03:38.882Z,98545.09
2018-10-18T07:06:08.077Z,98546.98
2018-10-18T07:08:37.238Z,98549.23
2018-10-18T07:11:06.843Z,98550.55
2018-10-18T07:13:36.030Z,98553.98
2018-10-18T07:16:05.395Z,98557.53
2018-10-18T07:18:34.615Z,98564.75
2018-10-18T07:21:03.834Z,98563.98
2018-10-18T07:23:33.068Z,98562.28
2018-10-18T07:26:02.299Z,98566.88
2018-10-18T07:28:31.543Z,98572.70
2018-10-18T07:31:00.765Z,98574.13
2018-10-18T07:33:29.979Z,98583.11
2018-10-18T07:35:59.233Z,98581.06
2018-10-18T07:38:28.419Z,98582.83
2018-10-18T07:40:57.653Z,98579.89
2018-10-18T07:43:26.855Z,98588.32
2018-10-18T07:45:56.079Z,98595.16
2018-10-18T07:48:25.287Z,98602.80
2018-10-18T07:50:54.523Z,98603.20
2018-10-18T07:53:23.767Z,98604.89
2018-10-18T07:55:52.967Z,98598.97
2018-10-18T07:58:22.181Z,98609.13
2018-10-18T08:00:51.540Z,98614.63
2018-10-18T08:03:20.611Z,98617.59
2018-10-18T08:05:49.862Z,98611.69
2018-10-18T08:08:19.081Z,98614.63
2018-10-18T08:10:48.295Z,98615.08
2018-10-18T08:13:17.568Z,98617.18
2018-10-18T08:15:46.627Z,98615.47
2018-10-18T08:18:15.818Z,98615.45
2018-10-18T08:20:44.995Z,98615.87
2018-10-18T08:23:14.179Z,98614.09
2018-10-18T08:25:43.376Z,98607.73
2018-10-18T08:28:12.550Z,98608.22
2018-10-18T08:30:41.742Z,98606.45
2018-10-18T08:33:10.927Z,98600.86
2018-10-18T08:35:40.111Z,98602.48
2018-10-18T08:38:09.394Z,98595.66
2018-10-18T08:40:38.475Z,98588.84
2018-10-18T08:43:07.745Z,98589.67
2018-10-18T08:45:36.859Z,98584.95
2018-10-18T08:48:06.300Z,98582.67
2018-10-18T08:50:35.517Z,98581.02
2018-10-18T08:53:05.012Z,98581.34
2018-10-18T08:55:34.322Z,98576.16
2018-10-18T08:58:03.466Z,98573.96
2018-10-18T09:00:32.663Z,98574.39
2018-10-18T09:03:01.844Z,98574.05
2018-10-18T09:05:31.043Z,98576.66
2018-10-18T09:08:00.236Z,98566.93
2018-10-18T09:10:29.449Z,98553.56
2018-10-18T09:12:58.683Z,98554.28
2018-10-18T09:15:27.884Z,98550.55
2018-10-18T09:17:57.108Z,98552.25
2018-10-18T09:20:26.312Z,98555.06
2018-10-18T09:22:55.538Z,98549.48
2018-10-18T09:25:24.743Z,98549.91
2018-10-18T09:27:53.955Z,98545.34
2018-10-18T09:30:23.196Z,98543.36
2018-10-18T09:32:52.396Z,98542.84
2018-10-18T09:35:21.598Z,98542.66
2018-10-18T09:37:50.843Z,98544.20
2018-10-18T09:40:20.048Z,98536.79
2018-10-18T09:42:49.272Z,98528.39
2018-10-18T09:45:18.471Z,98528.59
2018-10-18T09:47:47.684Z,98531.72
2018-10-18T09:50:16.890Z,98529.89
2018-10-18T09:52:46.115Z,98515.55
2018-10-18T09:55:15.382Z,98502.08
2018-10-18T09:57:44.531Z,98494.80
2018-10-18T10:01:22.724Z,98512.91
2018-10-18T10:03:51.927Z,98499.69
2018-10-18T10:06:21.144Z,98495.70
2018-10-18T10:08:50.388Z,98489.46
2018-10-18T10:11:19.603Z,98464.23
2018-10-18T10:13:48.880Z,98480.89
2018-10-18T10:16:18.530Z,98474.45
2018-10-18T10:18:47.969Z,98468.75
2018-10-18T10:21:17.175Z,98474.08
2018-10-18T10:23:46.391Z,98457.35
2018-10-18T10:26:15.604Z,98469.34
2018-10-18T10:28:44.825Z,98458.83
2018-10-18T10:31:14.107Z,98472.05
2018-10-18T10:33:43.245Z,98464.87
2018-10-18T10:36:12.482Z,98458.12
2018-10-18T10:38:41.689Z,98453.27
2018-10-18T10:41:11.045Z,98427.65
2018-10-18T10:43:40.143Z,98382.81
2018-10-18T10:46:09.492Z,98294.37
2018-10-18T10:48:38.837Z,98260.38
2018-10-18T10:51:08.077Z,98238.45
2018-10-18T10:53:37.276Z,98223.66
2018-10-18T10:56:06.573Z,98176.23
2018-10-18T10:58:35.698Z,98169.48
2018-10-18T11:01:10.334Z,98116.64
2018-10-18T11:03:40.689Z,98063.82
2018-10-18T11:06:10.378Z,98056.31
2018-10-18T11:08:39.510Z,98013.53
2018-10-18T11:11:09.080Z,98084.27
2018-10-18T11:13:38.327Z,98095.94
2018-10-18T11:16:07.830Z,98161.30
2018-10-18T11:18:37.947Z,98156.81
2018-10-18T11:21:08.274Z,98190.92
2018-10-18T11:23:37.464Z,98176.36
2018-10-18T11:26:06.757Z,98181.77
2018-10-18T11:28:35.916Z,98187.34
2018-10-18T11:31:05.176Z,98187.20
2018-10-18T11:33:34.396Z,98191.08
2018-10-18T11:36:03.664Z,98192.45
2018-10-18T11:38:32.787Z,98173.58
2018-10-18T11:41:02.999Z,98146.54
2018-10-18T11:43:32.171Z,98136.75
2018-10-18T11:46:01.357Z,98143.27
2018-10-18T11:48:30.537Z,98151.74
2018-10-18T11:50:59.732Z,98150.50
2018-10-18T11:53:28.907Z,98157.99
2018-10-18T11:55:58.108Z,98169.50
2018-10-18T11:58:27.280Z,98175.35
2018-10-18T12:00:56.460Z,98179.86
2018-10-18T12:03:25.667Z,98174.53
2018-10-18T12:05:54.847Z,98180.37
2018-10-18T12:08:24.031Z,98186.14
2018-10-18T12:10:53.281Z,98190.95
2018-10-18T12:13:22.455Z,98187.31
2018-10-18T12:15:51.676Z,98189.37
2018-10-18T12:18:20.876Z,98196.75
2018-10-18T12:20:50.088Z,98197.03
2018-10-18T12:23:19.415Z,98211.75
2018-10-18T12:25:48.522Z,98219.86
2018-10-18T12:28:17.753Z,98220.54
2018-10-18T12:30:46.959Z,98228.69
2018-10-18T12:33:16.184Z,98234.20
2018-10-18T12:35:45.407Z,98241.97
2018-10-18T12:38:14.746Z,98239.77
2018-10-18T12:40:43.862Z,98238.01
2018-10-18T12:43:13.059Z,98236.66
2018-10-18T12:45:42.279Z,98247.04
2018-10-18T12:48:11.508Z,98238.66
2018-10-18T12:50:40.700Z,98246.14
2018-10-18T12:53:09.912Z,98241.03
2018-10-18T12:55:39.124Z,98241.81
2018-10-18T12:58:08.323Z,98239.60
2018-10-18T13:00:37.527Z,98231.30
2018-10-18T13:03:06.842Z,98295.33
2018-10-18T13:05:36.046Z,98295.80
2018-10-18T13:08:05.287Z,98279.56
2018-10-18T13:10:34.547Z,98269.69
2018-10-18T13:13:03.728Z,98260.98
2018-10-18T13:15:32.938Z,98259.52
2018-10-18T13:18:02.171Z,98259.19
2018-10-18T13:20:31.363Z,98278.72
2018-10-18T13:23:00.588Z,98287.27
2018-10-18T13:25:29.881Z,98281.85
2018-10-18T13:27:59.015Z,98277.13
2018-10-18T13:30:28.223Z,98274.48
2018-10-18T13:32:57.467Z,98282.10
2018-10-18T13:35:26.672Z,98280.18
2018-10-18T13:37:55.887Z,98273.91
2018-10-18T13:40:25.083Z,98271.97
2018-10-18T13:42:54.303Z,98278.41
2018-10-18T13:45:23.507Z,98290.54
2018-10-18T13:47:52.734Z,98285.92
2018-10-18T13:50:21.944Z,98279.61
2018-10-18T13:52:51.172Z,98292.70
2018-10-18T13:55:20.395Z,98288.17
2018-10-18T13:57:49.628Z,98295.77
2018-10-18T14:00:25.874Z,98301.66
2018-10-18T14:02:55.596Z,98296.14
2018-10-18T14:05:25.316Z,98292.52
2018-10-18T14:07:55.256Z,98302.30
2018-10-18T14:10:24.419Z,98305.93
2018-10-18T14:12:54.132Z,98294.98
2018-10-18T14:15:23.329Z,98294.66
2018-10-18T14:17:52.616Z,98285.97
2018-10-18T14:20:21.886Z,98283.97
2018-10-18T14:22:51.096Z,98293.84
2018-10-18T14:25:20.288Z,98315.81
2018-10-18T14:27:49.483Z,98326.38
2018-10-18T14:30:18.714Z,98337.52
2018-10-18T14:32:47.913Z,98332.98
2018-10-18T14:35:17.237Z,98330.19
2018-10-18T14:37:46.300Z,98325.69
2018-10-18T14:40:15.492Z,98316.25
2018-10-18T14:42:44.692Z,98338.47
2018-10-18T14:45:13.884Z,98342.69
2018-10-18T14:47:43.092Z,98246.41
2018-10-18T14:50:13.628Z,98252.45
2018-10-18T14:52:43.337Z,98261.04
2018-10-18T14:55:12.519Z,98260.86
2018-10-18T14:57:41.945Z,98261.33
2018-10-18T15:00:12.807Z,98323.05
2018-10-18T15:02:42.276Z,98338.02
2018-10-18T15:05:12.327Z,98345.88
2018-10-18T15:07:41.887Z,98342.64
2018-10-18T15:10:12.319Z,98338.68
2018-10-18T15:12:41.864Z,98348.87
2018-10-18T15:15:12.360Z,98341.83
2018-10-18T15:17:41.753Z,98360.69
2018-10-18T15:20:11.849Z,98362.58
2018-10-18T15:22:41.788Z,98287.59
2018-10-18T15:25:11.965Z,98297.53
2018-10-18T15:27:41.816Z,98305.09
2018-10-18T15:30:11.503Z,98321.20
2018-10-18T15:32:40.782Z,98328.46
2018-10-18T15:35:11.063Z,98329.98
2018-10-18T15:37:40.569Z,98332.97
2018-10-18T15:40:10.168Z,98333.91
2018-10-18T15:42:39.350Z,98339.55
2018-10-18T15:45:10.120Z,98341.91
2018-10-18T15:47:39.420Z,98349.06
2018-10-18T15:50:10.341Z,98435.76
2018-10-18T15:52:39.536Z,98455.47
2018-10-18T15:55:09.343Z,98469.60
2018-10-18T15:57:38.659Z,98474.48
2018-10-18T16:00:10.102Z,98495.56
2018-10-18T16:02:39.291Z,98491.39
2018-10-18T16:05:08.590Z,98460.03
2018-10-18T16:07:37.982Z,98460.62
2018-10-18T16:10:08.320Z,98479.53
2018-10-18T16:12:37.822Z,98489.76
2018-10-18T16:15:08.464Z,98503.66
2018-10-18T16:17:37.953Z,98573.50
2018-10-18T16:20:09.215Z,98573.27
2018-10-18T16:22:39.115Z,98537.02
2018-10-18T16:25:09.448Z,98353.70
2018-10-18T16:27:38.690Z,98354.37
2018-10-18T16:30:07.976Z,98338.67
2018-10-18T16:32:37.447Z,98261.48
2018-10-18T16:35:07.247Z,98432.97
2018-10-18T16:37:36.346Z,98427.84
2018-10-18T16:40:05.971Z,98437.02
2018-10-18T16:42:35.172Z,98432.03
2018-10-18T16:45:04.467Z,98440.76
2018-10-18T16:47:33.731Z,98448.20
2018-10-18T16:50:02.886Z,98464.74
2018-10-18T16:52:32.102Z,98467.56
2018-10-18T16:55:01.296Z,98476.01
2018-10-18T16:57:30.515Z,98503.02
2018-10-18T16:59:59.768Z,98510.78
2018-10-18T17:02:28.993Z,98513.88
2018-10-18T17:04:58.384Z,98519.62
2018-10-18T17:07:27.635Z,98523.22
2018-10-18T17:09:57.157Z,98539.44
2018-10-18T17:12:26.395Z,98539.45
2018-10-18T17:14:55.615Z,98539.98
2018-10-18T17:17:24.859Z,98536.71
2018-10-18T17:19:54.271Z,98541.53
2018-10-18T17:22:23.511Z,98539.43
2018-10-18T17:24:52.842Z,98548.36
2018-10-18T17:27:22.230Z,98552.63
2018-10-18T17:29:51.348Z,98545.09
2018-10-18T17:32:20.621Z,98551.13
2018-10-18T17:34:49.836Z,98544.87
2018-10-18T17:37:19.060Z,98548.02
2018-10-18T17:39:48.286Z,98550.97
2018-10-18T17:42:17.634Z,98552.25
2018-10-18T17:44:46.811Z,98553.58
2018-10-18T17:47:16.107Z,98553.63
2018-10-18T17:49:45.281Z,98557.14
2018-10-18T17:52:14.604Z,98550.77
2018-10-18T17:54:43.756Z,98565.67
2018-10-18T17:57:12.987Z,98564.49
2018-10-18T17:59:42.271Z,98562.02
2018-10-18T18:02:11.576Z,98567.65
2018-10-18T18:04:40.740Z,98568.60
2018-10-18T18:07:09.983Z,98563.54
2018-10-18T18:09:39.208Z,98564.78
2018-10-18T18:12:08.398Z,98569.92
2018-10-18T18:14:37.616Z,98573.35
2018-10-18T18:17:06.973Z,98581.44
2018-10-18T18:19:36.184Z,98575.54
2018-10-18T18:22:05.979Z,98582.28
2018-10-18T18:24:35.144Z,98584.42
2018-10-18T18:27:04.442Z,98590.48
2018-10-18T18:29:33.575Z,98586.28
2018-10-18T18:32:02.800Z,98586.75
2018-10-18T18:34:32.024Z,98590.14
2018-10-18T18:37:01.215Z,98591.18
2018-10-18T18:39:30.438Z,98587.45
2018-10-18T18:41:59.661Z,98587.57
2018-10-18T18:44:28.858Z,98599.09
2018-10-18T18:46:58.057Z,98632.69
2018-10-18T18:49:27.281Z,98629.17
2018-10-18T18:51:56.501Z,98644.37
2018-10-18T18:54:25.735Z,98646.98
2018-10-18T18:56:54.940Z,98651.20
2018-10-18T18:59:24.124Z,98657.63
2018-10-18T19:01:53.320Z,98660.64
2018-10-18T19:04:22.537Z,98660.25
2018-10-18T19:06:51.764Z,98668.80
2018-10-18T19:09:20.967Z,98671.84
2018-10-18T19:11:50.198Z,98662.59
2018-10-18T19:14:19.417Z,98640.91
2018-10-18T19:16:48.646Z,98637.58
2018-10-18T19:19:17.839Z,98613.36
2018-10-18T19:21:47.030Z,98615.89
2018-10-18T19:24:16.215Z,98617.64
2018-10-18T19:26:45.415Z,98618.92
2018-10-18T19:29:14.603Z,98631.27
2018-10-18T19:31:43.820Z,98623.18
2018-10-18T19:34:13.023Z,98623.69
2018-10-18T19:36:42.228Z,98622.88
2018-10-18T19:39:11.406Z,98615.70
2018-10-18T19:41:40.609Z,98625.52
2018-10-18T19:44:09.918Z,98623.83
2018-10-18T19:46:39.225Z,98631.48
2018-10-18T19:49:08.305Z,98645.91
2018-10-18T19:51:37.511Z,98648.89
2018-10-18T19:54:06.973Z,98667.96
2018-10-18T19:56:36.187Z,98661.63
2018-10-18T19:59:05.399Z,98671.37
2018-10-18T20:01:34.704Z,98667.14
2018-10-18T20:04:03.970Z,98675.62
2018-10-18T20:06:33.182Z,98670.12
2018-10-18T20:09:02.464Z,98672.64
2018-10-18T20:11:31.771Z,98663.75
2018-10-18T20:14:01.048Z,98665.03
2018-10-18T20:16:30.320Z,98659.06
2018-10-18T20:18:59.592Z,98655.25
2018-10-18T20:21:28.907Z,98648.48
2018-10-18T20:23:58.265Z,98645.92
2018-10-18T20:26:27.692Z,98644.24
2018-10-18T20:28:56.859Z,98640.84
2018-10-18T20:31:26.093Z,98645.86
2018-10-18T20:33:55.303Z,98646.33
2018-10-18T20:36:24.547Z,98652.23
2018-10-18T20:38:53.810Z,98660.31
2018-10-18T20:41:23.047Z,98662.86
2018-10-18T20:43:52.277Z,98666.67
2018-10-18T20:46:21.552Z,98666.69
2018-10-18T20:48:50.767Z,98664.16
2018-10-18T20:51:19.999Z,98663.73
2018-10-18T20:53:49.263Z,98665.45
2018-10-18T20:56:18.576Z,98669.27
2018-10-18T20:58:47.941Z,98670.09
2018-10-18T21:01:17.079Z,98670.52
2018-10-18T21:03:46.317Z,98672.22
2018-10-18T21:06:15.567Z,98672.64
2018-10-18T21:08:44.806Z,98723.06
2018-10-18T21:11:14.068Z,98741.27
2018-10-18T21:13:43.295Z,98737.05
2018-10-18T21:16:12.510Z,98745.94
2018-10-18T21:18:41.736Z,98740.41
2018-10-18T21:21:11.069Z,98742.95
2018-10-18T21:23:40.368Z,98744.23
2018-10-18T21:26:09.644Z,98742.95
2018-10-18T21:28:38.978Z,98741.69
2018-10-18T21:31:08.204Z,98742.95
2018-10-18T21:33:37.569Z,98742.52
2018-10-18T21:36:06.803Z,98743.39
2018-10-18T21:38:36.140Z,98743.37
2018-10-18T21:41:05.653Z,98742.53
2018-10-18T21:43:34.878Z,98740.40
2018-10-18T21:46:04.265Z,98741.69
2018-10-18T21:48:33.632Z,98740.41
2018-10-18T21:51:03.043Z,98740.40
2018-10-18T21:53:32.212Z,98737.03
2018-10-18T21:56:01.459Z,98736.16
2018-10-18T21:58:30.687Z,98736.60
2018-10-18T22:00:59.903Z,98737.02
2018-10-18T22:03:29.141Z,98733.63
2018-10-18T22:05:58.363Z,98740.80
2018-10-18T22:08:27.582Z,98739.52
2018-10-18T22:10:56.849Z,98748.36
2018-10-18T22:13:26.067Z,98741.60
2018-10-18T22:15:55.281Z,98734.83
2018-10-18T22:18:24.499Z,98730.56
2018-10-18T22:20:53.837Z,98721.67
2018-10-18T22:23:23.035Z,98724.63
2018-10-18T22:25:52.251Z,98720.37
2018-10-18T22:28:21.526Z,98714.03
2018-10-18T22:30:50.739Z,98708.97
2018-10-18T22:33:19.964Z,98704.77
2018-10-18T22:35:49.194Z,98704.73
2018-10-18T22:38:18.427Z,98702.64
2018-10-18T22:40:47.652Z,98703.06
2018-10-18T22:43:16.873Z,98703.91
2018-10-18T22:45:50.175Z,98705.98
2018-10-18T22:48:19.394Z,98705.56
2018-10-18T22:50:48.628Z,98705.11
2018-10-18T22:53:17.856Z,98705.50
2018-10-18T22:55:47.189Z,98707.60
2018-10-18T22:58:16.409Z,98710.53
2018-10-18T23:00:48.956Z,98709.23
2018-10-18T23:03:19.884Z,98703.67
2018-10-18T23:05:49.510Z,98707.06
2018-10-18T23:08:18.752Z,98710.43
2018-10-18T23:10:48.018Z,98707.91
2018-10-18T23:13:17.241Z,98721.80
2018-10-18T23:15:46.459Z,98724.72
2018-10-18T23:18:15.682Z,98727.25
2018-10-18T23:20:44.931Z,98726.39
2018-10-18T23:23:14.218Z,98720.49
2018-10-18T23:25:43.388Z,98719.23
2018-10-18T23:28:12.612Z,98724.23
2018-10-18T23:30:41.863Z,98723.36
2018-10-18T23:33:11.110Z,98726.75
2018-10-18T23:35:40.488Z,98723.80
2018-10-18T23:38:09.737Z,98725.91
2018-10-18T23:40:38.971Z,98722.50
2018-10-18T23:43:08.196Z,98722.05
2018-10-18T23:45:37.463Z,98719.08
2018-10-18T23:48:06.988Z,98723.28
2018-10-18T23:50:36.223Z,98715.70
2018-10-18T23:53:05.529Z,98717.79
2018-10-18T23:55:34.695Z,98726.64
2018-10-18T23:58:03.915Z,98727.50
